RJCB(METAR)
05/21 17:00
METAR RJCB 210800Z 15021KT 9999 -SHRA FEW004 BKN006 14/14 Q1001 RMK
1ST004 7ST006 A2958=
戻る
トップページへ戻る
IMOC Co,.Ltd.